createdAt,value
2022-12-04T00:01:28.180Z,-0.15
2022-12-04T00:03:58.889Z,-0.03
2022-12-04T00:06:27.724Z,-0.17
2022-12-04T00:08:55.813Z,-0.07
2022-12-04T00:11:28.869Z,-0.15
2022-12-04T00:14:00.277Z,-0.14
2022-12-04T00:16:32.040Z,0.02
2022-12-04T00:18:59.266Z,-0.08
2022-12-04T00:21:26.499Z,-0.09
2022-12-04T00:23:54.275Z,-0.25
2022-12-04T00:26:25.368Z,-0.19
2022-12-04T00:28:53.439Z,-0.25
2022-12-04T00:31:25.033Z,-0.23
2022-12-04T00:33:53.084Z,-0.14
2022-12-04T00:36:24.071Z,-0.29
2022-12-04T00:38:52.382Z,-0.21
2022-12-04T00:41:25.067Z,-0.08
2022-12-04T00:43:54.321Z,-0.14
2022-12-04T00:46:22.748Z,-0.19
2022-12-04T00:48:50.754Z,-0.05
2022-12-04T00:51:24.836Z,-0.17
2022-12-04T00:53:53.430Z,-0.13
2022-12-04T00:56:25.975Z,-0.19
2022-12-04T00:58:59.858Z,-0.21
2022-12-04T01:01:29.086Z,-0.28
2022-12-04T01:03:57.194Z,-0.11
2022-12-04T01:06:32.321Z,-0.17
2022-12-04T01:09:02.944Z,-0.14
2022-12-04T01:11:31.129Z,-0.04
2022-12-04T01:13:59.694Z,-0.08
2022-12-04T01:16:31.774Z,-0.21
2022-12-04T01:19:00.089Z,-0.19
2022-12-04T01:21:27.658Z,-0.17
2022-12-04T01:23:54.823Z,-0.05
2022-12-04T01:26:21.991Z,-0.10
2022-12-04T01:28:49.202Z,-0.14
2022-12-04T01:31:19.737Z,-0.08
2022-12-04T01:33:49.028Z,0.07
2022-12-04T01:36:23.223Z,-0.04
2022-12-04T01:38:51.044Z,-0.11
2022-12-04T01:41:27.515Z,-0.09
2022-12-04T01:44:15.366Z,-0.19
2022-12-04T01:46:53.421Z,-0.02
2022-12-04T01:49:38.008Z,-0.16
2022-12-04T01:52:13.791Z,-0.06
2022-12-04T01:54:46.086Z,0.03
2022-12-04T01:57:20.017Z,-0.06
2022-12-04T02:00:04.072Z,0.05
2022-12-04T02:02:41.472Z,-0.09
2022-12-04T02:05:16.480Z,0.02
2022-12-04T02:07:48.877Z,-0.05
2022-12-04T02:10:24.235Z,0.00
2022-12-04T02:13:11.930Z,-0.02
2022-12-04T02:15:45.409Z,-0.02
2022-12-04T02:18:53.771Z,0.01
2022-12-04T02:21:38.908Z,-0.04
2022-12-04T02:24:17.841Z,-0.09
2022-12-04T02:26:56.075Z,-0.05
2022-12-04T02:29:37.697Z,-0.10
2022-12-04T02:32:28.561Z,0.00
2022-12-04T02:35:04.104Z,-0.05
2022-12-04T02:37:43.876Z,-0.06
2022-12-04T02:40:31.570Z,-0.06
2022-12-04T02:43:28.317Z,0.00
2022-12-04T02:46:30.867Z,-0.03
2022-12-04T02:49:03.220Z,0.06
2022-12-04T02:51:37.268Z,-0.02
2022-12-04T02:54:32.655Z,0.02
2022-12-04T02:57:04.751Z,0.01
2022-12-04T02:59:45.203Z,0.07
2022-12-04T03:02:25.188Z,0.13
2022-12-04T03:04:57.348Z,0.03
2022-12-04T03:07:39.993Z,0.13
2022-12-04T03:10:17.465Z,0.04
2022-12-04T03:12:54.635Z,0.09
2022-12-04T03:15:33.873Z,0.09
2022-12-04T03:18:09.265Z,0.15
2022-12-04T03:20:38.481Z,0.26
2022-12-04T03:23:22.401Z,0.24
2022-12-04T03:26:23.914Z,0.06
2022-12-04T03:29:26.396Z,0.12
2022-12-04T03:32:14.986Z,0.16
2022-12-04T03:35:02.901Z,0.13
2022-12-04T03:38:10.038Z,0.22
2022-12-04T03:41:18.124Z,0.24
2022-12-04T03:44:15.320Z,0.24
2022-12-04T03:46:57.963Z,0.26
2022-12-04T03:49:45.977Z,0.16
2022-12-04T03:52:33.131Z,0.18
2022-12-04T03:55:13.294Z,0.36
2022-12-04T03:57:45.339Z,0.24
2022-12-04T04:00:21.278Z,0.27
2022-12-04T04:02:58.263Z,0.20
2022-12-04T04:05:30.254Z,0.30
2022-12-04T04:08:24.875Z,0.38
2022-12-04T04:10:58.396Z,0.35
2022-12-04T04:13:57.221Z,0.33
2022-12-04T04:16:47.203Z,0.38
2022-12-04T04:19:38.648Z,0.36
2022-12-04T04:22:28.770Z,0.27
2022-12-04T04:25:11.724Z,0.39
2022-12-04T04:27:38.933Z,0.33
2022-12-04T04:30:09.415Z,0.33
2022-12-04T04:33:05.902Z,0.40
2022-12-04T04:36:03.519Z,0.44
2022-12-04T04:38:45.601Z,0.33
2022-12-04T04:41:28.397Z,0.34
2022-12-04T04:44:15.756Z,0.48
2022-12-04T04:46:52.724Z,0.39
2022-12-04T04:49:26.891Z,0.39
2022-12-04T04:51:55.244Z,0.47
2022-12-04T04:54:24.030Z,0.41
2022-12-04T04:56:51.259Z,0.40
2022-12-04T04:59:18.410Z,0.43
2022-12-04T05:01:47.060Z,0.40
2022-12-04T05:04:15.083Z,0.35
2022-12-04T05:06:42.344Z,0.40
2022-12-04T05:09:09.516Z,0.40
2022-12-04T05:11:36.761Z,0.50
2022-12-04T05:14:05.870Z,0.36
2022-12-04T05:16:33.250Z,0.41
2022-12-04T05:19:19.144Z,0.44
2022-12-04T05:21:46.282Z,0.51
2022-12-04T05:24:13.420Z,0.56
2022-12-04T05:26:40.586Z,0.66
2022-12-04T05:29:07.853Z,0.45
2022-12-04T05:31:35.080Z,0.55
2022-12-04T05:34:02.312Z,0.53
2022-12-04T05:36:29.460Z,0.52
2022-12-04T05:38:56.591Z,0.47
2022-12-04T05:41:24.129Z,0.43
2022-12-04T05:43:52.345Z,0.49
2022-12-04T05:46:19.540Z,0.42
2022-12-04T05:48:46.764Z,0.62
2022-12-04T05:51:14.037Z,0.42
2022-12-04T05:53:41.206Z,0.52
2022-12-04T05:56:08.876Z,0.36
2022-12-04T05:58:38.150Z,0.48
2022-12-04T06:01:15.820Z,0.64
2022-12-04T06:03:43.912Z,0.58
2022-12-04T06:06:24.117Z,0.34
2022-12-04T06:08:54.884Z,0.39
2022-12-04T06:11:27.460Z,0.55
2022-12-04T06:13:56.487Z,0.53
2022-12-04T06:16:28.165Z,0.58
2022-12-04T06:19:00.387Z,0.49
2022-12-04T06:21:32.091Z,0.44
2022-12-04T06:23:59.335Z,0.55
2022-12-04T06:26:27.577Z,0.41
2022-12-04T06:28:57.483Z,0.54
2022-12-04T06:31:27.546Z,0.45
2022-12-04T06:33:57.013Z,0.32
2022-12-04T06:36:25.349Z,0.39
2022-12-04T06:38:56.156Z,0.40
2022-12-04T06:41:26.235Z,0.51
2022-12-04T06:43:54.208Z,0.54
2022-12-04T06:46:28.450Z,0.51
2022-12-04T06:48:59.055Z,0.68
2022-12-04T06:51:33.508Z,0.66
2022-12-04T06:54:01.508Z,0.73
2022-12-04T06:56:33.046Z,0.58
2022-12-04T06:59:03.762Z,0.42
2022-12-04T07:01:34.817Z,0.58
2022-12-04T07:04:04.267Z,0.44
2022-12-04T07:06:38.249Z,0.49
2022-12-04T07:09:17.957Z,0.36
2022-12-04T07:11:46.022Z,0.33
2022-12-04T07:14:13.985Z,0.36
2022-12-04T07:16:42.879Z,0.38
2022-12-04T07:19:14.083Z,0.61
2022-12-04T07:21:42.426Z,0.34
2022-12-04T07:24:16.465Z,0.39
2022-12-04T07:26:44.307Z,0.30
2022-12-04T07:29:12.039Z,0.48
2022-12-04T07:31:39.338Z,0.30
2022-12-04T07:34:06.658Z,0.36
2022-12-04T07:36:33.835Z,0.48
2022-12-04T07:39:01.142Z,0.48
2022-12-04T07:41:28.351Z,0.36
2022-12-04T07:43:55.539Z,0.59
2022-12-04T07:46:27.011Z,0.51
2022-12-04T07:48:58.702Z,0.59
2022-12-04T07:51:29.317Z,0.44
2022-12-04T07:54:03.659Z,0.44
2022-12-04T07:56:33.214Z,0.51
2022-12-04T07:59:00.569Z,0.49
2022-12-04T08:01:28.146Z,0.59
2022-12-04T08:03:58.335Z,0.47
2022-12-04T08:06:28.486Z,0.39
2022-12-04T08:08:57.312Z,0.39
2022-12-04T08:11:27.264Z,0.40
2022-12-04T08:14:00.790Z,0.42
2022-12-04T08:16:30.542Z,0.50
2022-12-04T08:18:59.731Z,0.46
2022-12-04T08:21:30.116Z,0.42
2022-12-04T08:23:59.488Z,0.34
2022-12-04T08:26:29.917Z,0.36
2022-12-04T08:28:58.411Z,0.43
2022-12-04T08:31:28.607Z,0.37
2022-12-04T08:33:58.527Z,0.51
2022-12-04T08:36:26.608Z,0.34
2022-12-04T08:38:54.283Z,0.35
2022-12-04T08:41:24.588Z,0.41
2022-12-04T08:43:54.649Z,0.47
2022-12-04T08:46:24.926Z,0.42
2022-12-04T08:48:52.661Z,0.48
2022-12-04T08:51:29.759Z,0.39
2022-12-04T08:54:07.056Z,0.43
2022-12-04T08:56:37.840Z,0.35
2022-12-04T08:59:05.428Z,0.52
2022-12-04T09:01:32.642Z,0.64
2022-12-04T09:04:00.070Z,0.46
2022-12-04T09:06:27.350Z,0.53
2022-12-04T09:08:56.710Z,0.57
2022-12-04T09:11:27.355Z,0.57
2022-12-04T09:13:55.837Z,0.66
2022-12-04T09:16:25.528Z,0.57
2022-12-04T09:18:53.617Z,0.45
2022-12-04T09:21:23.133Z,0.76
2022-12-04T09:23:51.641Z,0.53
2022-12-04T09:26:30.550Z,0.64
2022-12-04T09:29:00.448Z,0.54
2022-12-04T09:31:28.037Z,0.64
2022-12-04T09:33:57.892Z,0.68
2022-12-04T09:36:25.213Z,0.64
2022-12-04T09:38:54.560Z,0.71
2022-12-04T09:42:04.052Z,0.65
2022-12-04T09:44:38.185Z,0.79
2022-12-04T09:47:21.515Z,0.79
2022-12-04T09:50:18.430Z,0.78
2022-12-04T09:53:08.866Z,0.75
2022-12-04T09:55:47.480Z,0.77
2022-12-04T09:58:23.477Z,0.67
2022-12-04T10:00:53.423Z,0.79
2022-12-04T10:03:28.155Z,0.90
2022-12-04T10:06:38.647Z,0.91
2022-12-04T10:09:25.164Z,0.83
2022-12-04T10:12:07.453Z,0.72
2022-12-04T10:15:08.798Z,0.77
2022-12-04T10:18:02.294Z,0.72
2022-12-04T10:21:09.639Z,0.82
2022-12-04T10:23:42.420Z,0.88
2022-12-04T10:26:18.302Z,0.73
2022-12-04T10:28:55.544Z,0.76
2022-12-04T10:31:26.009Z,0.83
2022-12-04T10:34:16.360Z,0.87
2022-12-04T10:36:50.636Z,0.83
2022-12-04T10:39:26.640Z,0.83
2022-12-04T10:42:39.209Z,0.75
2022-12-04T10:45:07.454Z,0.78
2022-12-04T10:47:34.944Z,0.73
2022-12-04T10:50:18.220Z,0.86
2022-12-04T10:52:45.833Z,0.89
2022-12-04T10:55:13.814Z,0.85
2022-12-04T10:57:46.803Z,0.85
2022-12-04T11:00:40.006Z,0.88
2022-12-04T11:03:25.573Z,0.87
2022-12-04T11:06:00.470Z,0.77
2022-12-04T11:08:41.083Z,0.86
2022-12-04T11:11:13.198Z,0.91
2022-12-04T11:13:41.896Z,0.79
2022-12-04T11:16:33.790Z,0.94
2022-12-04T11:19:01.028Z,0.94
2022-12-04T11:21:31.936Z,0.86
2022-12-04T11:23:59.322Z,0.83
2022-12-04T11:26:35.201Z,0.86
2022-12-04T11:29:05.163Z,0.90
2022-12-04T11:31:33.065Z,0.96
2022-12-04T11:34:05.691Z,0.92
2022-12-04T11:36:42.569Z,1.04
2022-12-04T11:39:12.480Z,0.99
2022-12-04T11:41:40.042Z,0.92
2022-12-04T11:44:24.191Z,0.98
2022-12-04T11:46:54.986Z,1.20
2022-12-04T11:49:25.580Z,1.01
2022-12-04T11:52:29.218Z,1.05
2022-12-04T11:55:29.296Z,1.04
2022-12-04T11:58:24.108Z,1.12
2022-12-04T12:01:20.351Z,1.06
2022-12-04T12:04:07.805Z,1.13
2022-12-04T12:06:39.305Z,1.13
2022-12-04T12:09:34.955Z,1.16
2022-12-04T12:12:27.224Z,1.09
2022-12-04T12:15:10.689Z,1.20
2022-12-04T12:18:05.661Z,1.07
2022-12-04T12:20:51.231Z,1.18
2022-12-04T12:24:13.690Z,1.23
2022-12-04T12:27:34.298Z,1.18
2022-12-04T12:30:09.655Z,1.14
2022-12-04T12:32:53.768Z,1.04
2022-12-04T12:35:46.939Z,1.03
2022-12-04T12:38:37.508Z,1.14
2022-12-04T12:41:11.572Z,1.06
2022-12-04T12:43:40.239Z,1.08
2022-12-04T12:46:48.955Z,1.19
2022-12-04T12:49:45.070Z,1.14
2022-12-04T12:52:31.378Z,1.07
2022-12-04T12:55:15.080Z,1.09
2022-12-04T12:57:48.881Z,1.16
2022-12-04T13:00:21.506Z,1.28
2022-12-04T13:03:00.628Z,1.10
2022-12-04T13:05:37.699Z,1.18
2022-12-04T13:08:25.788Z,1.18
2022-12-04T13:11:24.262Z,1.29
2022-12-04T13:14:02.396Z,1.11
2022-12-04T13:16:39.113Z,1.22
2022-12-04T13:19:27.226Z,1.30
2022-12-04T13:22:58.619Z,1.32
2022-12-04T13:25:56.725Z,1.27
2022-12-04T13:28:46.853Z,1.29
2022-12-04T13:32:25.614Z,1.26
2022-12-04T13:35:26.512Z,1.36
2022-12-04T13:38:33.546Z,1.45
2022-12-04T13:41:06.904Z,1.45
2022-12-04T13:43:48.290Z,1.36
2022-12-04T13:46:32.286Z,1.41
2022-12-04T13:49:25.684Z,1.34
2022-12-04T13:51:54.628Z,1.28
2022-12-04T13:54:30.738Z,1.32
2022-12-04T13:57:20.145Z,1.46
2022-12-04T13:59:49.019Z,1.38
2022-12-04T14:02:35.917Z,1.38
2022-12-04T14:05:11.845Z,1.33
2022-12-04T14:07:45.696Z,1.29
2022-12-04T14:10:15.776Z,1.30
2022-12-04T14:12:57.225Z,1.34
2022-12-04T14:15:28.969Z,1.36
2022-12-04T14:18:29.556Z,1.30
2022-12-04T14:21:05.312Z,1.24
2022-12-04T14:23:39.542Z,1.35
2022-12-04T14:27:03.160Z,1.37
2022-12-04T14:29:52.026Z,1.13
2022-12-04T14:32:25.985Z,1.37
2022-12-04T14:34:54.569Z,1.32
2022-12-04T14:37:32.714Z,1.27
2022-12-04T14:40:02.787Z,1.33
2022-12-04T14:42:38.954Z,1.33
2022-12-04T14:45:23.852Z,1.33
2022-12-04T14:48:13.159Z,1.35
2022-12-04T14:51:14.731Z,1.36
2022-12-04T14:53:52.784Z,1.31
2022-12-04T14:56:50.888Z,1.35
2022-12-04T14:59:27.918Z,1.28
2022-12-04T15:01:55.949Z,1.28
2022-12-04T15:04:28.202Z,1.30
2022-12-04T15:07:00.177Z,1.30
2022-12-04T15:09:47.643Z,1.34
2022-12-04T15:12:35.036Z,1.34
2022-12-04T15:15:24.794Z,1.37
2022-12-04T15:18:13.851Z,1.30
2022-12-04T15:20:49.975Z,1.42
2022-12-04T15:23:29.131Z,1.25
2022-12-04T15:26:00.510Z,1.34
2022-12-04T15:28:44.350Z,1.33
2022-12-04T15:31:22.243Z,1.29
2022-12-04T15:33:56.260Z,1.31
2022-12-04T15:36:41.640Z,1.34
2022-12-04T15:39:18.837Z,1.40
2022-12-04T15:41:46.197Z,1.34
2022-12-04T15:44:30.083Z,1.37
2022-12-04T15:47:01.535Z,1.35
2022-12-04T15:49:33.397Z,1.48
2022-12-04T15:52:19.177Z,1.30
2022-12-04T15:54:56.532Z,1.35
2022-12-04T15:57:31.108Z,1.35
2022-12-04T16:00:02.688Z,1.41
2022-12-04T16:02:39.696Z,1.42
2022-12-04T16:05:21.801Z,1.38
2022-12-04T16:08:02.225Z,1.42
2022-12-04T16:10:35.049Z,1.40
2022-12-04T16:13:05.349Z,1.43
2022-12-04T16:15:41.922Z,1.42
2022-12-04T16:18:14.186Z,1.34
2022-12-04T16:20:41.631Z,1.36
2022-12-04T16:23:09.532Z,1.44
2022-12-04T16:25:37.051Z,1.42
2022-12-04T16:28:04.568Z,1.40
2022-12-04T16:30:34.779Z,1.35
2022-12-04T16:33:02.245Z,1.37
2022-12-04T16:35:31.439Z,1.47
2022-12-04T16:37:58.590Z,1.48
2022-12-04T16:40:25.818Z,1.43
2022-12-04T16:42:53.459Z,1.49
2022-12-04T16:45:31.431Z,1.49
2022-12-04T16:47:58.667Z,1.51
2022-12-04T16:50:27.694Z,1.47
2022-12-04T16:52:55.631Z,1.54
2022-12-04T16:55:39.212Z,1.45
2022-12-04T16:58:08.141Z,1.56
2022-12-04T17:00:36.486Z,1.55
2022-12-04T17:03:04.344Z,1.55
2022-12-04T17:05:35.640Z,1.62
2022-12-04T17:08:02.969Z,1.55
2022-12-04T17:10:30.261Z,1.62
2022-12-04T17:12:57.520Z,1.50
2022-12-04T17:15:24.817Z,1.47
2022-12-04T17:17:52.022Z,1.50
2022-12-04T17:20:21.141Z,1.55
2022-12-04T17:22:49.218Z,1.66
2022-12-04T17:25:18.120Z,1.60
2022-12-04T17:27:45.768Z,1.63
2022-12-04T17:30:13.948Z,1.66
2022-12-04T17:32:41.140Z,1.56
2022-12-04T17:35:13.229Z,1.80
2022-12-04T17:37:40.508Z,1.65
2022-12-04T17:40:10.634Z,1.60
2022-12-04T17:42:37.790Z,1.56
2022-12-04T17:45:05.515Z,1.58
2022-12-04T17:47:35.661Z,1.65
2022-12-04T17:50:05.878Z,1.59
2022-12-04T17:52:33.672Z,1.53
2022-12-04T17:55:00.884Z,1.51
2022-12-04T17:57:28.124Z,1.55
2022-12-04T17:59:55.386Z,1.55
2022-12-04T18:02:22.690Z,1.56
2022-12-04T18:04:49.906Z,1.68
2022-12-04T18:07:17.152Z,1.76
2022-12-04T18:09:44.325Z,1.73
2022-12-04T18:12:12.171Z,1.75
2022-12-04T18:14:39.443Z,1.68
2022-12-04T18:17:06.655Z,1.66
2022-12-04T18:19:33.965Z,1.68
2022-12-04T18:22:01.367Z,1.76
2022-12-04T18:24:28.607Z,1.65
2022-12-04T18:26:55.934Z,1.69
2022-12-04T18:29:26.549Z,1.65
2022-12-04T18:31:54.423Z,1.74
2022-12-04T18:34:22.255Z,1.70
2022-12-04T18:36:49.984Z,1.68
2022-12-04T18:39:21.760Z,1.67
2022-12-04T18:41:49.695Z,1.64
2022-12-04T18:44:18.106Z,1.69
2022-12-04T18:46:45.574Z,1.60
2022-12-04T18:49:12.905Z,1.78
2022-12-04T18:51:49.539Z,1.66
2022-12-04T18:54:23.413Z,1.64
2022-12-04T18:56:51.863Z,1.66
2022-12-04T18:59:26.402Z,1.69
2022-12-04T19:01:54.625Z,1.83
2022-12-04T19:04:24.805Z,1.64
2022-12-04T19:06:55.818Z,1.71
2022-12-04T19:10:09.949Z,1.75
2022-12-04T19:12:14.825Z,1.68
2022-12-04T19:14:42.141Z,1.70
2022-12-04T19:17:09.446Z,1.87
2022-12-04T19:19:36.612Z,1.81
2022-12-04T19:22:04.045Z,1.84
2022-12-04T19:24:31.638Z,1.76
2022-12-04T19:26:58.891Z,1.87
2022-12-04T19:29:26.115Z,1.81
2022-12-04T19:31:58.862Z,1.84
2022-12-04T19:34:26.767Z,1.81
2022-12-04T19:36:54.896Z,1.87
2022-12-04T19:39:22.468Z,1.88
2022-12-04T19:41:49.786Z,1.93
2022-12-04T19:44:47.214Z,1.82
2022-12-04T19:47:04.361Z,1.80
2022-12-04T19:49:31.628Z,1.94
2022-12-04T19:51:58.802Z,1.87
2022-12-04T19:54:25.999Z,1.87
2022-12-04T19:56:53.331Z,1.86
2022-12-04T19:59:20.932Z,1.84
2022-12-04T20:01:48.355Z,1.90
2022-12-04T20:04:15.618Z,1.91
2022-12-04T20:06:45.968Z,1.81
2022-12-04T20:09:20.412Z,1.82
2022-12-04T20:11:48.406Z,1.95
2022-12-04T20:14:15.744Z,1.82
2022-12-04T20:16:43.087Z,1.95
2022-12-04T20:19:15.749Z,1.86
2022-12-04T20:21:44.692Z,1.80
2022-12-04T20:24:15.631Z,1.85
2022-12-04T20:26:44.824Z,1.81
2022-12-04T20:29:15.621Z,1.89
2022-12-04T20:31:46.192Z,1.85
2022-12-04T20:34:17.756Z,1.83
2022-12-04T20:36:47.817Z,1.75
2022-12-04T20:39:17.568Z,1.85
2022-12-04T20:41:46.297Z,1.85
2022-12-04T20:44:18.492Z,1.87
2022-12-04T20:46:47.022Z,1.87
2022-12-04T20:49:21.916Z,1.82
2022-12-04T20:51:52.120Z,1.83
2022-12-04T20:54:22.116Z,1.92
2022-12-04T20:56:52.843Z,1.91
2022-12-04T20:59:23.064Z,1.91
2022-12-04T21:01:51.785Z,1.97
2022-12-04T21:04:19.623Z,1.91
2022-12-04T21:06:47.109Z,1.97
2022-12-04T21:09:21.908Z,2.03
2022-12-04T21:11:55.144Z,2.03
2022-12-04T21:14:46.036Z,1.86
2022-12-04T21:17:18.882Z,2.04
2022-12-04T21:19:49.118Z,1.98
2022-12-04T21:22:19.088Z,2.00
2022-12-04T21:24:46.468Z,1.96
2022-12-04T21:27:20.459Z,1.93
2022-12-04T21:29:49.163Z,2.03
2022-12-04T21:32:17.637Z,2.00
2022-12-04T21:34:45.218Z,2.03
2022-12-04T21:37:12.551Z,1.95
2022-12-04T21:39:39.816Z,2.04
2022-12-04T21:42:25.675Z,2.02
2022-12-04T21:44:52.836Z,2.07
2022-12-04T21:47:20.083Z,2.01
2022-12-04T21:49:47.641Z,2.01
2022-12-04T21:52:19.216Z,1.92
2022-12-04T21:54:52.008Z,1.94
2022-12-04T21:57:20.737Z,1.95
2022-12-04T21:59:48.347Z,2.03
2022-12-04T22:02:15.815Z,1.90
2022-12-04T22:04:43.110Z,1.91
2022-12-04T22:07:11.136Z,2.05
2022-12-04T22:09:39.183Z,2.01
2022-12-04T22:12:26.471Z,1.97
2022-12-04T22:14:54.194Z,2.08
2022-12-04T22:17:21.340Z,2.08
2022-12-04T22:19:48.465Z,2.10
2022-12-04T22:22:15.615Z,2.18
2022-12-04T22:24:42.788Z,2.04
2022-12-04T22:27:14.756Z,2.06
2022-12-04T22:29:50.404Z,2.01
2022-12-04T22:32:19.881Z,2.05
2022-12-04T22:34:50.245Z,2.10
2022-12-04T22:37:17.803Z,2.06
2022-12-04T22:39:44.965Z,2.10
2022-12-04T22:42:12.150Z,2.00
2022-12-04T22:44:39.316Z,2.07
2022-12-04T22:47:06.521Z,2.10
2022-12-04T22:49:33.794Z,2.04
2022-12-04T22:52:00.992Z,2.05
2022-12-04T22:54:28.139Z,2.17
2022-12-04T22:56:55.332Z,2.03
2022-12-04T22:59:22.527Z,2.13
2022-12-04T23:01:49.708Z,2.02
2022-12-04T23:04:17.003Z,2.09
2022-12-04T23:06:44.181Z,2.07
2022-12-04T23:09:17.614Z,2.02
2022-12-04T23:11:45.296Z,2.11
2022-12-04T23:14:15.337Z,2.11
2022-12-04T23:16:43.130Z,2.05
2022-12-04T23:19:18.157Z,2.17
2022-12-04T23:21:47.907Z,2.15
2022-12-04T23:24:17.096Z,2.20
2022-12-04T23:26:46.638Z,2.17
2022-12-04T23:29:36.808Z,2.20
2022-12-04T23:32:01.842Z,2.10
2022-12-04T23:34:29.022Z,2.06
2022-12-04T23:36:56.215Z,2.21
2022-12-04T23:39:23.375Z,2.21
2022-12-04T23:41:50.572Z,2.31
2022-12-04T23:44:17.710Z,2.20
2022-12-04T23:46:45.302Z,2.35
2022-12-04T23:49:12.516Z,2.21
2022-12-04T23:51:39.683Z,2.18
2022-12-04T23:54:06.914Z,2.19
2022-12-04T23:56:34.207Z,2.17
2022-12-04T23:59:01.430Z,2.15
